Terminal Aerodrome Forecast
Issued by NWS

Home | Current Version | Previous Version | Text Only | Print | Product List | Glossary Off
Versions: 1 2 3 4 5 6 7 8 9 10 11 12 13 14 15 16 17 18 19 20 21

000
FTUS43 KBIS 271342 AAA
TAFDIK
TAF AMD
KDIK 271342Z 2714/2812 19003KT P6SM FEW180 SCT250
     FM271600 15011KT P6SM SCT150 BKN250
     FM272100 15014G19KT P6SM VCTS SCT050 BKN080CB
      TEMPO 2722/2802 VRB15G25KT 2SM TSRA BKN040CB
     FM280300 23007KT 5SM -SHRA VCTS BKN035 OVC060CB
     FM280600 05005KT 3SM BR OVC015=

USA.gov is the U.S. government's official web portal to all federal, state and local government web resources and services.